createdAt,value
2019-05-01T00:01:36.980Z,6.69
2019-05-01T00:04:23.787Z,6.59
2019-05-01T00:07:03.998Z,6.49
2019-05-01T00:09:34.103Z,6.39
2019-05-01T00:12:03.624Z,6.24
2019-05-01T00:14:33.172Z,6.26
2019-05-01T00:17:02.786Z,6.13
2019-05-01T00:19:32.344Z,6.03
2019-05-01T00:22:01.815Z,5.64
2019-05-01T00:24:31.319Z,5.38
2019-05-01T00:27:00.795Z,5.44
2019-05-01T00:29:30.363Z,5.61
2019-05-01T00:31:59.838Z,5.55
2019-05-01T00:34:29.361Z,5.21
2019-05-01T00:36:59.886Z,4.95
2019-05-01T00:39:29.376Z,4.96
2019-05-01T00:41:58.856Z,5.27
2019-05-01T00:44:28.382Z,5.11
2019-05-01T00:46:57.852Z,5.22
2019-05-01T00:49:28.208Z,5.40
2019-05-01T00:51:57.751Z,5.38
2019-05-01T00:54:28.045Z,5.47
2019-05-01T00:57:08.105Z,5.39
2019-05-01T00:59:45.172Z,5.25
2019-05-01T01:02:31.213Z,4.94
2019-05-01T01:05:00.727Z,5.03
2019-05-01T01:07:30.210Z,5.03
2019-05-01T01:09:59.695Z,4.65
2019-05-01T01:12:29.189Z,4.48
2019-05-01T01:14:58.708Z,4.39
2019-05-01T01:17:29.433Z,4.30
2019-05-01T01:19:58.936Z,4.19
2019-05-01T01:22:28.854Z,4.10
2019-05-01T01:24:58.411Z,4.03
2019-05-01T01:27:28.067Z,3.89
2019-05-01T01:29:58.030Z,4.10
2019-05-01T01:32:27.540Z,3.72
2019-05-01T01:34:57.097Z,3.59
2019-05-01T01:37:26.567Z,3.49
2019-05-01T01:39:56.128Z,3.52
2019-05-01T01:42:26.827Z,3.33
2019-05-01T01:45:00.999Z,3.24
2019-05-01T01:47:30.547Z,3.20
2019-05-01T01:50:00.242Z,3.13
2019-05-01T01:52:30.071Z,3.10
2019-05-01T01:54:59.694Z,2.94
2019-05-01T01:57:29.494Z,2.88
2019-05-01T01:59:59.265Z,2.81
2019-05-01T02:02:33.277Z,2.78
2019-05-01T02:05:12.994Z,2.70
2019-05-01T02:07:42.825Z,2.68
2019-05-01T02:10:12.601Z,2.66
2019-05-01T02:12:42.849Z,2.65
2019-05-01T02:15:12.682Z,2.60
2019-05-01T02:17:42.162Z,2.56
2019-05-01T02:20:12.685Z,2.51
2019-05-01T02:22:42.257Z,2.48
2019-05-01T02:25:13.344Z,2.42
2019-05-01T02:27:48.492Z,2.37
2019-05-01T02:30:19.638Z,2.32
2019-05-01T02:32:49.828Z,2.26
2019-05-01T02:35:19.966Z,2.20
2019-05-01T02:37:50.546Z,2.11
2019-05-01T02:40:42.829Z,2.11
2019-05-01T02:43:17.386Z,2.12
2019-05-01T02:45:51.169Z,2.00
2019-05-01T02:48:23.057Z,1.95
2019-05-01T02:50:56.443Z,1.94
2019-05-01T02:53:27.767Z,1.98
2019-05-01T02:56:13.728Z,1.94
2019-05-01T02:58:46.036Z,1.90
2019-05-01T03:01:16.302Z,1.88
2019-05-01T03:03:46.609Z,1.79
2019-05-01T03:06:16.371Z,1.79
2019-05-01T03:08:46.272Z,1.74
2019-05-01T03:11:15.770Z,1.70
2019-05-01T03:13:47.717Z,1.64
2019-05-01T03:16:18.461Z,1.58
2019-05-01T03:18:53.389Z,1.55
2019-05-01T03:21:24.818Z,1.52
2019-05-01T03:24:01.794Z,1.53
2019-05-01T03:26:31.848Z,1.55
2019-05-01T03:29:01.345Z,1.55
2019-05-01T03:31:30.916Z,1.44
2019-05-01T03:34:00.491Z,1.43
2019-05-01T03:36:30.283Z,1.41
2019-05-01T03:39:00.409Z,1.36
2019-05-01T03:41:30.082Z,1.39
2019-05-01T03:43:59.726Z,1.41
2019-05-01T03:46:29.658Z,1.22
2019-05-01T03:48:59.583Z,1.15
2019-05-01T03:51:29.204Z,1.15
2019-05-01T03:53:59.270Z,1.07
2019-05-01T03:56:29.712Z,1.05
2019-05-01T03:58:59.923Z,1.00
2019-05-01T04:01:37.432Z,0.99
2019-05-01T04:04:08.997Z,0.99
2019-05-01T04:06:39.948Z,0.96
2019-05-01T04:09:09.571Z,0.92
2019-05-01T04:11:39.286Z,0.89
2019-05-01T04:14:09.706Z,0.87
2019-05-01T04:16:40.775Z,0.89
2019-05-01T04:19:11.323Z,0.93
2019-05-01T04:21:43.080Z,1.28
2019-05-01T04:24:12.573Z,1.26
2019-05-01T04:26:42.688Z,1.18
2019-05-01T04:29:14.898Z,1.11
2019-05-01T04:31:53.645Z,1.11
2019-05-01T04:34:33.786Z,1.13
2019-05-01T04:37:06.119Z,1.28
2019-05-01T04:39:35.872Z,1.73
2019-05-01T04:42:05.433Z,1.65
2019-05-01T04:44:35.191Z,1.58
2019-05-01T04:47:04.944Z,1.68
2019-05-01T04:49:34.553Z,1.95
2019-05-01T04:52:04.100Z,2.11
2019-05-01T04:54:33.693Z,2.29
2019-05-01T04:57:03.272Z,2.45
2019-05-01T04:59:33.722Z,2.64
2019-05-01T05:02:05.500Z,2.81
2019-05-01T05:04:35.061Z,2.92
2019-05-01T05:07:04.763Z,3.05
2019-05-01T05:09:38.731Z,3.18
2019-05-01T05:12:10.541Z,3.58
2019-05-01T05:14:45.002Z,3.83
2019-05-01T05:17:16.283Z,5.63
2019-05-01T05:19:46.175Z,8.36
2019-05-01T05:22:16.732Z,10.82
2019-05-01T05:24:47.144Z,11.56
2019-05-01T05:27:18.077Z,12.01
2019-05-01T05:29:49.102Z,12.57
2019-05-01T05:32:21.035Z,12.69
2019-05-01T05:34:54.043Z,13.47
2019-05-01T05:37:28.226Z,15.23
2019-05-01T05:40:00.109Z,15.17
2019-05-01T05:42:30.802Z,15.31
2019-05-01T05:45:00.634Z,15.93
2019-05-01T05:47:30.878Z,16.42
2019-05-01T05:50:00.360Z,18.35
2019-05-01T05:52:33.322Z,16.59
2019-05-01T05:55:11.358Z,17.81
2019-05-01T05:57:55.158Z,17.60
2019-05-01T06:00:34.291Z,17.08
2019-05-01T06:03:17.230Z,17.26
2019-05-01T06:05:54.348Z,17.06
2019-05-01T06:08:28.004Z,17.69
2019-05-01T06:11:16.610Z,18.19
2019-05-01T06:14:01.142Z,17.60
2019-05-01T06:16:34.586Z,17.16
2019-05-01T06:19:14.526Z,16.74
2019-05-01T06:21:44.993Z,17.68
2019-05-01T06:24:16.290Z,17.80
2019-05-01T06:26:46.716Z,18.33
2019-05-01T06:29:16.484Z,18.01
2019-05-01T06:31:46.059Z,17.33
2019-05-01T06:34:15.763Z,17.59
2019-05-01T06:36:49.579Z,17.33
2019-05-01T06:39:16.578Z,17.96
2019-05-01T06:41:46.081Z,18.69
2019-05-01T06:44:24.965Z,18.28
2019-05-01T06:47:03.246Z,17.84
2019-05-01T06:49:32.901Z,18.55
2019-05-01T06:52:06.369Z,19.33
2019-05-01T06:54:36.975Z,19.41
2019-05-01T06:57:07.115Z,19.60
2019-05-01T06:59:38.694Z,20.29
2019-05-01T07:02:10.315Z,19.24
2019-05-01T07:04:40.321Z,19.98
2019-05-01T07:07:24.758Z,20.29
2019-05-01T07:09:48.785Z,20.55
2019-05-01T07:12:15.670Z,20.63
2019-05-01T07:14:47.116Z,20.88
2019-05-01T07:17:16.933Z,21.79
2019-05-01T07:20:05.162Z,22.72
2019-05-01T07:22:37.127Z,22.43
2019-05-01T07:25:08.543Z,23.69
2019-05-01T07:27:38.115Z,24.15
2019-05-01T07:30:15.851Z,22.37
2019-05-01T07:32:45.544Z,22.93
2019-05-01T07:35:15.109Z,25.08
2019-05-01T07:37:44.826Z,22.51
2019-05-01T07:40:14.694Z,22.27
2019-05-01T07:42:48.198Z,22.89
2019-05-01T07:45:29.026Z,22.38
2019-05-01T07:48:00.961Z,23.50
2019-05-01T07:50:32.616Z,24.35
2019-05-01T07:53:02.115Z,24.65
2019-05-01T07:55:37.661Z,24.89
2019-05-01T07:58:15.147Z,22.23
2019-05-01T08:00:54.563Z,24.21
2019-05-01T08:03:24.086Z,24.17
2019-05-01T08:05:53.614Z,25.34
2019-05-01T08:08:23.114Z,24.67
2019-05-01T08:10:52.586Z,24.71
2019-05-01T08:13:22.070Z,24.45
2019-05-01T08:15:51.609Z,21.85
2019-05-01T08:18:36.206Z,23.38
2019-05-01T08:21:13.449Z,23.53
2019-05-01T08:23:47.175Z,22.99
2019-05-01T08:26:14.208Z,26.22
2019-05-01T08:29:02.937Z,27.75
2019-05-01T08:31:35.136Z,25.35
2019-05-01T08:34:09.546Z,25.12
2019-05-01T08:36:42.577Z,23.55
2019-05-01T08:39:12.402Z,20.87
2019-05-01T08:41:41.718Z,22.57
2019-05-01T08:44:11.189Z,22.56
2019-05-01T08:46:42.339Z,23.65
2019-05-01T08:49:22.021Z,22.88
2019-05-01T08:51:51.487Z,22.61
2019-05-01T08:54:21.175Z,23.94
2019-05-01T08:56:53.100Z,24.39
2019-05-01T08:59:23.889Z,24.29
2019-05-01T09:02:08.458Z,22.89
2019-05-01T09:04:25.397Z,25.98
2019-05-01T09:06:55.668Z,26.14
2019-05-01T09:09:25.135Z,27.02
2019-05-01T09:11:54.842Z,24.45
2019-05-01T09:14:25.396Z,23.71
2019-05-01T09:16:54.918Z,24.52
2019-05-01T09:19:24.438Z,23.74
2019-05-01T09:21:53.904Z,22.93
2019-05-01T09:24:27.986Z,25.13
2019-05-01T09:27:08.116Z,23.69
2019-05-01T09:29:46.790Z,21.86
2019-05-01T09:32:18.697Z,22.79
2019-05-01T09:34:47.605Z,24.33
2019-05-01T09:37:17.089Z,22.19
2019-05-01T09:39:47.432Z,24.49
2019-05-01T09:42:22.677Z,24.53
2019-05-01T09:44:48.364Z,25.48
2019-05-01T09:47:18.060Z,23.61
2019-05-01T09:49:48.740Z,25.48
2019-05-01T09:52:36.857Z,24.56
2019-05-01T09:55:09.783Z,21.91
2019-05-01T09:57:41.503Z,20.41
2019-05-01T10:00:12.383Z,26.09
2019-05-01T10:02:43.945Z,23.03
2019-05-01T10:05:13.581Z,26.08
2019-05-01T10:07:43.055Z,27.13
2019-05-01T10:10:12.749Z,25.60
2019-05-01T10:12:47.041Z,21.71
2019-05-01T10:15:13.587Z,24.88
2019-05-01T10:17:43.063Z,22.24
2019-05-01T10:20:12.794Z,23.08
2019-05-01T10:22:42.264Z,23.95
2019-05-01T10:25:13.496Z,23.38
2019-05-01T10:27:53.774Z,25.45
2019-05-01T10:30:41.100Z,25.10
2019-05-01T10:33:17.917Z,25.74
2019-05-01T10:35:49.042Z,27.13
2019-05-01T10:38:18.523Z,22.52
2019-05-01T10:40:48.050Z,23.48
2019-05-01T10:43:17.548Z,26.95
2019-05-01T10:45:47.036Z,25.22
2019-05-01T10:48:16.599Z,26.84
2019-05-01T10:50:46.099Z,26.80
2019-05-01T10:53:15.702Z,24.01
2019-05-01T10:55:45.185Z,23.10
2019-05-01T10:58:17.943Z,22.42
2019-05-01T11:00:47.535Z,22.71
2019-05-01T11:03:17.041Z,22.97
2019-05-01T11:05:55.652Z,22.82
2019-05-01T11:08:18.735Z,23.14
2019-05-01T11:10:48.261Z,23.00
2019-05-01T11:13:17.739Z,22.65
2019-05-01T11:15:47.232Z,23.11
2019-05-01T11:18:16.772Z,26.74
2019-05-01T11:20:46.296Z,25.46
2019-05-01T11:23:15.801Z,25.12
2019-05-01T11:25:45.284Z,24.41
2019-05-01T11:28:14.760Z,25.20
2019-05-01T11:30:44.328Z,24.39
2019-05-01T11:33:15.449Z,24.58
2019-05-01T11:35:50.713Z,24.36
2019-05-01T11:38:21.873Z,23.47
2019-05-01T11:41:08.994Z,26.96
2019-05-01T11:43:38.499Z,25.57
2019-05-01T11:46:08.013Z,24.97
2019-05-01T11:48:37.712Z,24.63
2019-05-01T11:51:07.372Z,25.62
2019-05-01T11:53:36.842Z,22.78
2019-05-01T11:56:06.466Z,23.20
2019-05-01T11:58:35.978Z,22.47
2019-05-01T12:01:06.747Z,23.44
2019-05-01T12:03:36.221Z,24.49
2019-05-01T12:06:05.788Z,25.48
2019-05-01T12:08:35.270Z,28.06
2019-05-01T12:11:06.596Z,27.64
2019-05-01T12:13:43.635Z,25.40
2019-05-01T12:16:11.686Z,23.76
2019-05-01T12:18:41.165Z,23.50
2019-05-01T12:21:10.658Z,22.62
2019-05-01T12:23:40.175Z,24.45
2019-05-01T12:26:09.661Z,24.22
2019-05-01T12:28:39.415Z,25.74
2019-05-01T12:31:08.942Z,23.18
2019-05-01T12:33:38.428Z,22.43
2019-05-01T12:36:08.849Z,23.10
2019-05-01T12:38:38.351Z,24.10
2019-05-01T12:41:20.972Z,23.24
2019-05-01T12:43:50.450Z,23.22
2019-05-01T12:46:36.428Z,22.54
2019-05-01T12:49:06.449Z,21.20
2019-05-01T12:51:36.867Z,19.43
2019-05-01T12:54:24.023Z,19.73
2019-05-01T12:56:55.151Z,19.44
2019-05-01T12:59:24.663Z,20.03
2019-05-01T13:01:54.144Z,19.58
2019-05-01T13:04:24.701Z,19.02
2019-05-01T13:06:58.085Z,18.90
2019-05-01T13:09:27.556Z,19.45
2019-05-01T13:11:57.050Z,20.06
2019-05-01T13:14:26.557Z,20.60
2019-05-01T13:16:56.041Z,20.35
2019-05-01T13:19:25.520Z,19.79
2019-05-01T13:21:55.109Z,20.35
2019-05-01T13:24:24.612Z,19.73
2019-05-01T13:26:58.436Z,20.16
2019-05-01T13:29:29.561Z,19.93
2019-05-01T13:32:06.438Z,19.51
2019-05-01T13:34:35.934Z,19.42
2019-05-01T13:37:06.595Z,19.52
2019-05-01T13:39:36.150Z,19.68
2019-05-01T13:42:08.977Z,19.93
2019-05-01T13:44:38.158Z,20.03
2019-05-01T13:47:07.732Z,19.97
2019-05-01T13:49:37.198Z,19.81
2019-05-01T13:52:06.695Z,19.28
2019-05-01T13:54:36.254Z,19.73
2019-05-01T13:57:06.010Z,19.97
2019-05-01T13:59:35.553Z,19.83
2019-05-01T14:02:05.094Z,19.40
2019-05-01T14:04:34.865Z,19.46
2019-05-01T14:07:15.884Z,19.70
2019-05-01T14:09:35.969Z,19.65
2019-05-01T14:12:05.626Z,19.69
2019-05-01T14:14:35.092Z,19.84
2019-05-01T14:17:04.627Z,18.97
2019-05-01T14:19:35.787Z,18.73
2019-05-01T14:22:24.954Z,18.31
2019-05-01T14:24:58.840Z,18.19
2019-05-01T14:27:28.618Z,18.28
2019-05-01T14:29:58.180Z,18.30
2019-05-01T14:32:27.860Z,18.13
2019-05-01T14:34:57.348Z,18.19
2019-05-01T14:37:29.915Z,18.50
2019-05-01T14:39:58.032Z,18.74
2019-05-01T14:42:27.504Z,18.81
2019-05-01T14:44:57.033Z,18.47
2019-05-01T14:47:26.546Z,18.49
2019-05-01T14:49:56.061Z,18.11
2019-05-01T14:52:25.983Z,18.02
2019-05-01T14:54:55.489Z,18.17
2019-05-01T14:57:24.952Z,17.95
2019-05-01T14:59:54.495Z,18.15
2019-05-01T15:02:24.054Z,18.49
2019-05-01T15:04:54.220Z,18.22
2019-05-01T15:07:23.722Z,17.97
2019-05-01T15:09:53.198Z,18.11
2019-05-01T15:12:22.694Z,18.32
2019-05-01T15:14:53.818Z,18.13
2019-05-01T15:17:24.972Z,18.21
2019-05-01T15:20:01.967Z,17.82
2019-05-01T15:22:31.445Z,17.78
2019-05-01T15:25:00.964Z,18.02
2019-05-01T15:27:30.437Z,18.13
2019-05-01T15:29:59.978Z,18.07
2019-05-01T15:32:29.458Z,17.86
2019-05-01T15:35:00.054Z,18.07
2019-05-01T15:37:29.596Z,18.10
2019-05-01T15:40:00.730Z,18.22
2019-05-01T15:42:37.874Z,18.13
2019-05-01T15:45:08.145Z,17.89
2019-05-01T15:47:37.630Z,17.88
2019-05-01T15:50:08.728Z,17.78
2019-05-01T15:52:38.280Z,17.79
2019-05-01T15:55:09.039Z,17.67
2019-05-01T15:57:38.555Z,17.60
2019-05-01T16:00:11.087Z,17.41
2019-05-01T16:02:40.585Z,17.57
2019-05-01T16:05:10.247Z,17.67
2019-05-01T16:07:39.733Z,17.80
2019-05-01T16:10:12.207Z,17.80
2019-05-01T16:12:48.624Z,17.82
2019-05-01T16:15:19.836Z,17.87
2019-05-01T16:17:49.319Z,17.71
2019-05-01T16:20:18.874Z,17.70
2019-05-01T16:22:48.371Z,17.57
2019-05-01T16:25:18.026Z,17.41
2019-05-01T16:27:47.685Z,16.93
2019-05-01T16:30:19.339Z,17.08
2019-05-01T16:32:48.815Z,17.36
2019-05-01T16:35:18.307Z,17.30
2019-05-01T16:37:47.897Z,17.10
2019-05-01T16:40:17.691Z,16.91
2019-05-01T16:42:47.166Z,17.11
2019-05-01T16:45:16.779Z,17.11
2019-05-01T16:47:46.279Z,16.95
2019-05-01T16:50:16.026Z,16.90
2019-05-01T16:52:45.549Z,16.62
2019-05-01T16:55:15.448Z,16.57
2019-05-01T16:57:44.916Z,16.53
2019-05-01T17:00:15.818Z,16.52
2019-05-01T17:02:47.487Z,16.54
2019-05-01T17:05:18.827Z,16.49
2019-05-01T17:07:49.979Z,16.35
2019-05-01T17:10:29.944Z,16.42
2019-05-01T17:12:59.973Z,16.13
2019-05-01T17:15:36.738Z,15.93
2019-05-01T17:18:06.294Z,15.83
2019-05-01T17:20:35.774Z,15.65
2019-05-01T17:23:05.762Z,15.52
2019-05-01T17:25:35.939Z,15.76
2019-05-01T17:28:08.127Z,15.55
2019-05-01T17:30:43.098Z,15.31
2019-05-01T17:33:19.871Z,15.30
2019-05-01T17:35:44.008Z,15.15
2019-05-01T17:38:13.487Z,15.17
2019-05-01T17:40:43.046Z,15.00
2019-05-01T17:43:15.333Z,14.85
2019-05-01T17:45:44.953Z,14.76
2019-05-01T17:48:14.440Z,14.73
2019-05-01T17:50:43.912Z,14.64
2019-05-01T17:53:13.478Z,14.47
2019-05-01T17:55:43.033Z,14.58
2019-05-01T17:58:12.640Z,14.45
2019-05-01T18:00:56.085Z,14.22
2019-05-01T18:03:40.135Z,13.99
2019-05-01T18:06:14.514Z,14.19
2019-05-01T18:08:44.023Z,13.99
2019-05-01T18:11:15.681Z,13.56
2019-05-01T18:13:45.322Z,13.32
2019-05-01T18:16:15.073Z,12.97
2019-05-01T18:18:44.585Z,12.85
2019-05-01T18:21:14.292Z,12.28
2019-05-01T18:24:01.344Z,11.98
2019-05-01T18:26:32.478Z,11.66
2019-05-01T18:29:15.175Z,11.38
2019-05-01T18:31:44.800Z,11.20
2019-05-01T18:34:14.324Z,11.69
2019-05-01T18:36:54.939Z,11.67
2019-05-01T18:39:27.362Z,11.03
2019-05-01T18:41:58.525Z,10.71
2019-05-01T18:44:28.122Z,10.95
2019-05-01T18:46:57.622Z,10.38
2019-05-01T18:49:27.210Z,10.13
2019-05-01T18:51:56.771Z,10.47
2019-05-01T18:54:30.350Z,9.98
2019-05-01T18:56:57.586Z,9.72
2019-05-01T18:59:27.109Z,9.64
2019-05-01T19:01:56.746Z,9.45
2019-05-01T19:04:26.287Z,9.38
2019-05-01T19:06:55.950Z,9.37
2019-05-01T19:09:30.318Z,9.26
2019-05-01T19:11:57.663Z,9.07
2019-05-01T19:14:29.140Z,8.98
2019-05-01T19:16:59.733Z,8.87
2019-05-01T19:19:29.254Z,8.94
2019-05-01T19:21:58.753Z,9.27
2019-05-01T19:24:32.422Z,9.09
2019-05-01T19:27:00.226Z,8.57
2019-05-01T19:29:32.193Z,8.30
2019-05-01T19:32:00.999Z,8.27
2019-05-01T19:34:30.478Z,8.40
2019-05-01T19:36:59.978Z,8.15
2019-05-01T19:39:42.431Z,8.07
2019-05-01T19:42:00.641Z,7.90
2019-05-01T19:44:30.150Z,8.13
2019-05-01T19:46:59.685Z,8.13
2019-05-01T19:49:30.658Z,7.89
2019-05-01T19:52:01.884Z,7.60
2019-05-01T19:54:31.521Z,7.46
2019-05-01T19:57:01.035Z,7.39
2019-05-01T19:59:30.502Z,7.31
2019-05-01T20:01:59.971Z,7.23
2019-05-01T20:04:29.530Z,7.23
2019-05-01T20:06:59.184Z,7.07
2019-05-01T20:09:28.727Z,6.97
2019-05-01T20:11:58.223Z,7.32
2019-05-01T20:14:27.808Z,7.03
2019-05-01T20:16:57.267Z,7.10
2019-05-01T20:19:26.893Z,6.76
2019-05-01T20:21:56.409Z,6.57
2019-05-01T20:24:25.880Z,6.46
2019-05-01T20:26:55.374Z,6.40
2019-05-01T20:29:24.845Z,6.41
2019-05-01T20:31:54.327Z,6.61
2019-05-01T20:34:23.834Z,6.36
2019-05-01T20:36:53.298Z,6.29
2019-05-01T20:39:23.871Z,6.50
2019-05-01T20:41:53.532Z,6.11
2019-05-01T20:44:25.418Z,6.32
2019-05-01T20:46:58.588Z,5.95
2019-05-01T20:49:25.397Z,5.79
2019-05-01T20:51:54.868Z,5.74
2019-05-01T20:54:24.351Z,5.69
2019-05-01T20:56:58.161Z,5.95
2019-05-01T20:59:27.649Z,5.68
2019-05-01T21:01:59.660Z,5.59
2019-05-01T21:04:35.558Z,5.49
2019-05-01T21:07:10.244Z,5.40
2019-05-01T21:09:47.667Z,5.34
2019-05-01T21:12:12.642Z,5.31
2019-05-01T21:14:45.289Z,5.24
2019-05-01T21:17:13.850Z,5.16
2019-05-01T21:19:44.398Z,5.11
2019-05-01T21:22:14.353Z,5.09
2019-05-01T21:24:44.505Z,5.01
2019-05-01T21:27:14.035Z,4.96
2019-05-01T21:29:44.536Z,4.93
2019-05-01T21:32:18.160Z,4.90
2019-05-01T21:34:45.299Z,4.85
2019-05-01T21:37:15.660Z,5.27
2019-05-01T21:39:45.162Z,5.14
2019-05-01T21:42:15.881Z,4.81
2019-05-01T21:44:45.889Z,4.71
2019-05-01T21:47:15.354Z,4.57
2019-05-01T21:49:44.919Z,4.52
2019-05-01T21:52:18.031Z,4.74
2019-05-01T21:54:45.608Z,4.42
2019-05-01T21:57:17.318Z,4.31
2019-05-01T21:59:48.106Z,4.29
2019-05-01T22:02:17.681Z,4.29
2019-05-01T22:04:47.641Z,4.31
2019-05-01T22:07:17.150Z,4.23
2019-05-01T22:09:50.426Z,4.28
2019-05-01T22:12:17.993Z,4.12
2019-05-01T22:14:52.121Z,4.15
2019-05-01T22:17:38.982Z,4.09
2019-05-01T22:20:10.899Z,4.04
2019-05-01T22:22:50.581Z,3.95
2019-05-01T22:25:27.801Z,3.90
2019-05-01T22:28:01.898Z,3.86
2019-05-01T22:30:48.979Z,3.78
2019-05-01T22:33:18.748Z,3.87
2019-05-01T22:35:52.396Z,3.81
2019-05-01T22:38:21.946Z,3.80
2019-05-01T22:41:06.175Z,3.78
2019-05-01T22:43:30.373Z,3.75
2019-05-01T22:46:01.572Z,3.72
2019-05-01T22:48:31.112Z,3.68
2019-05-01T22:51:02.241Z,3.64
2019-05-01T22:53:31.726Z,3.75
2019-05-01T22:56:02.266Z,3.61
2019-05-01T22:58:32.413Z,3.62
2019-05-01T23:01:02.205Z,3.48
2019-05-01T23:03:49.416Z,3.44
2019-05-01T23:06:19.682Z,3.43
2019-05-01T23:08:49.284Z,3.43
2019-05-01T23:11:20.392Z,3.46
2019-05-01T23:13:50.028Z,3.40
2019-05-01T23:16:21.213Z,3.45
2019-05-01T23:18:51.911Z,3.39
2019-05-01T23:21:21.922Z,3.40
2019-05-01T23:23:51.404Z,3.36
2019-05-01T23:26:20.913Z,3.33
2019-05-01T23:28:50.462Z,3.28
2019-05-01T23:31:20.418Z,3.22
2019-05-01T23:33:50.634Z,3.20
2019-05-01T23:36:23.846Z,3.10
2019-05-01T23:38:52.485Z,3.07
2019-05-01T23:41:24.771Z,2.99
2019-05-01T23:43:53.218Z,2.91
2019-05-01T23:46:22.689Z,2.77
2019-05-01T23:48:52.211Z,2.72
2019-05-01T23:51:23.613Z,2.70
2019-05-01T23:53:52.891Z,2.67
2019-05-01T23:56:22.364Z,2.57
2019-05-01T23:58:51.844Z,2.56
